FZQA

Lubumbashi International Airport

Airport
ICAO code
FZQA
IATA Code
FBM
Summary
ICAO Region
AFI
Location

, Katanga

Serving
Lubumashi
Elevation
4295 ft
Coordinates
11° 35' 29" S , 27° 31' 51" E
Metar
Observation
FZQA 131200Z 18005KT CAVOK 26/14 Q1017 NOSIG
Station
Lubumbashi-Luano
Date/Time
2022-08-13 12:00:00
Wind direction
180°
Wind speed
05 kts
Lowest cloud amount
clouds and visibility OK
Temperature
26°C
Dew point
14°C
Humidity
47%
QNH
1017 hPa
Weather condition
n/a

Runways

Designator Length Width Surface Rops
7/25 3238 50 ASP No/No

Airport map

Aerial View

SKYbrary Partners:

Safety knowledge contributed by: